Flight Track Log - Related Links

Times and Time Zones

All times are in EDT time to prevent confusion due to time zone crossing. See the GJS6221 flight status page for this flight to view local times or setup timezone preferences in your user account.

Time Position Orientation Groundspeed Altitude Reporting Facility
EDT Latitude Longitude Course Direction KTS MPH feet Rate Location/Type
Wed 07:19:02 AM 45.4497 -73.7475 207° Southwest 459 528 1,400  Level Boston Center
Wed 07:19:40 AM 45.4167 -73.7667 202° Southwest 170 196 3,000 2,694 Climbing Montreal Center
Wed 07:20:40 AM 45.3667 -73.8167 215° Southwest 240 276 5,800 2,900 Climbing Montreal Center
Wed 07:21:40 AM 45.3000 -73.8500 199° South 260 299 8,800 2,600 Climbing Montreal Center
Wed 07:22:40 AM 45.2167 -73.8833 196° South 290 334 11,000 2,100 Climbing Montreal Center
Wed 07:23:40 AM 45.1167 -73.8833 180° South 340 391 13,000 2,100 Climbing Montreal Center
Wed 07:24:00 AM 44.9896 -74.0788 207° Southwest  Level FlightAware Approximate
Wed 07:24:40 AM 45.0333 -73.8833 180° South 360 414 15,200  Level Montreal Center
Wed 07:25:40 AM 44.9167 -73.8667 174° South 370 426 17,700 2,350 Climbing Montreal Center
Wed 07:26:40 AM 44.8167 -73.8667 180° South 380 437 19,900 1,950 Climbing Montreal Center
Wed 07:27:40 AM 44.7000 -73.8667 180° South 390 449 21,600 1,700 Climbing Montreal Center
Wed 07:28:40 AM 44.6000 -73.8500 173° South 400 460 23,300 1,850 Climbing Montreal Center
Wed 07:29:40 AM 44.4833 -73.8500 180° South 390 449 25,300 1,850 Climbing Montreal Center
Wed 07:30:40 AM 44.3833 -73.8667 187° South 390 449 27,000 1,700 Climbing Montreal Center
Wed 07:31:40 AM 44.2833 -73.8500 173° South 380 437 28,700 1,550 Climbing Montreal Center
Wed 07:32:40 AM 44.1833 -73.8500 180° South 370 426 30,100 1,450 Climbing Montreal Center
Wed 07:33:40 AM 44.0667 -73.8500 180° South 360 414 31,600 950 Climbing Montreal Center
Wed 07:34:40 AM 43.9667 -73.8333 173° South 360 414 32,000 200 Climbing Montreal Center
Wed 07:35:40 AM 43.8667 -73.8333 180° South 370 426 32,000 -500 Level Montreal Center
Wed 07:36:40 AM 43.7667 -73.8167 173° South 380 437 31,000 -950 Descending Montreal Center
Wed 07:37:40 AM 43.6667 -73.8167 180° South 380 437 30,100 -1,000 Descending Montreal Center
Wed 07:38:40 AM 43.5500 -73.8167 180° South 370 426 29,000 -1,000 Descending Montreal Center
Wed 07:39:40 AM 43.4500 -73.8333 187° South 370 426 28,100 -833 Descending Montreal Center
Wed 07:41:04 AM 43.3381 -73.8275 178° South 366 421 27,000 -458 Descending Boston Center
Wed 07:42:04 AM 43.2403 -73.8253 179° South 360 414 27,000 -248 Level Boston Center
Wed 07:43:05 AM 43.1403 -73.8200 178° South 360 414 26,500 -908 Descending Boston Center
Wed 07:44:03 AM 43.0381 -73.8150 178° South 360 414 25,200 -1,261 Descending Boston Center
Wed 07:45:04 AM 42.9339 -73.8156 180° South 366 421 24,000 -843 Descending Boston Center
Wed 07:46:04 AM 42.8319 -73.8103 178° South 366 421 23,500 -793 Descending Boston Center
Wed 07:47:05 AM 42.7278 -73.7997 176° South 366 421 22,400 -506 Descending Boston Center
Wed 07:49:02 AM 42.5117 -73.7583 172° South 386 444 22,000 -168 Descending Boston Center
Wed 07:50:04 AM 42.4014 -73.7333 170° South 391 450 21,900 -829 Descending Boston Center
Wed 07:51:05 AM 42.2850 -73.7031 169° South 398 458 20,300 -1,339 Descending Boston Center
Wed 07:52:05 AM 42.1975 -73.6900 174° South 357 411 19,200 -667 Descending Boston Center
Wed 07:53:02 AM 42.1206 -73.6772 173° South 334 384 19,000 -102 Descending Boston Center
Wed 07:54:03 AM 42.0272 -73.6531 169° South 316 364 19,000 -639 Level Boston Center
Wed 07:55:04 AM 41.9378 -73.6375 173° South 316 364 17,700 -1,377 Descending Boston Center
Wed 07:56:05 AM 41.8767 -73.6753 205° Southwest 259 298 16,200 -1,339 Descending Boston Center
Wed 07:57:05 AM 41.8756 -73.7728 269° West 229 264 15,000 -1,322 Descending Boston Center
Wed 07:58:03 AM 41.8703 -73.8703 266° West 257 296 13,600 -1,008 Descending Boston Center
Wed 07:59:04 AM 41.8586 -73.9647 261° West 269 310 13,000 -600 Descending Boston Center
Wed 08:00:03 AM 41.7875 -73.9853 192° South 232 267 12,400 -1,100 Descending Boston Center
Wed 08:01:04 AM 41.7044 -73.9583 166° South 265 305 10,800 -1,190 Descending Boston Center
Wed 08:02:04 AM 41.6639 -73.8767 124° Southeast 260 299 10,000 -397 Descending Boston Center
Wed 08:03:05 AM 41.6714 -73.7714 85° East 250 288 10,000 -298 Level Boston Center
Wed 08:04:05 AM 41.6497 -73.6764 107° East 260 299 9,400 -513 Descending Boston Center
Wed 08:05:02 AM 41.5786 -73.6861 186° South 230 265 9,000 -135 Descending Boston Center
Wed 08:06:18 AM 41.4833 -73.7333 200° South 275 316 9,100 -176 Climbing New York TRACON
Wed 08:07:18 AM 41.4000 -73.7667 197° South 273 314 8,600 -991 Descending New York TRACON
Wed 08:08:13 AM 41.3333 -73.7833 191° South 286 329 7,200 -1,513 Descending New York TRACON
Wed 08:09:13 AM 41.2667 -73.7333 151° Southeast 296 341 5,700 -1,008 Descending New York TRACON
Wed 08:10:18 AM 41.2000 -73.6667 143° Southeast 272 313 5,100 -286 Descending New York TRACON
Wed 08:11:19 AM 41.1333 -73.6167 151° Southeast 276 318 5,100 -248 Level New York TRACON
Wed 08:12:19 AM 41.0667 -73.6000 169° South 273 314 4,600 -504 Descending New York TRACON
Wed 08:13:18 AM 40.9833 -73.5833 171° South 276 318 4,100 -250 Descending New York TRACON
Wed 08:14:19 AM 40.9167 -73.6167 201° Southwest 275 316 4,100  Level New York TRACON
Wed 08:15:24 AM 40.8333 -73.6500 197° South 282 325 4,100  Level New York TRACON
Wed 08:16:19 AM 40.7833 -73.7000 217° Southwest 267 307 4,100  Level New York TRACON
Wed 08:17:19 AM 40.7833 -73.7833 270° West 256 295 4,100 -454 Level New York TRACON
Wed 08:18:18 AM 40.7833 -73.8833 270° West 247 284 3,200 -500 Descending New York TRACON
Wed 08:19:19 AM 40.7667 -73.9667 255° West 248 285 3,100 -298 Descending New York TRACON
Wed 08:20:19 AM 40.7167 -73.9500 166° South 235 270 2,600 -600 Descending New York TRACON
Wed 08:21:19 AM 40.7167 -73.8833 90° East 191 220 1,900 -633 Descending New York TRACON
Wed 08:23:19 AM 40.7667 -73.8000 52° Northeast 131 151 700 -600 Descending New York TRACON

Login

Don't have an account? Register now (free) for customized features, flight alerts, and more!